createdAt,value
2019-04-21T00:01:24.611Z,36.42
2019-04-21T00:03:57.303Z,36.20
2019-04-21T00:06:48.478Z,36.55
2019-04-21T00:09:18.187Z,37.60
2019-04-21T00:11:49.726Z,38.23
2019-04-21T00:14:08.924Z,40.00
2019-04-21T00:16:36.901Z,40.00
2019-04-21T00:19:10.759Z,41.25
2019-04-21T00:21:40.493Z,40.17
2019-04-21T00:24:25.218Z,42.13
2019-04-21T00:29:36.603Z,40.63
2019-04-21T00:31:57.960Z,42.27
2019-04-21T00:34:15.301Z,41.75
2019-04-21T00:36:57.355Z,45.10
2019-04-21T00:39:45.015Z,45.00
2019-04-21T00:42:06.707Z,45.67
2019-04-21T00:44:27.478Z,45.77
2019-04-21T00:47:00.665Z,45.90
2019-04-21T00:49:33.054Z,44.85
2019-04-21T00:52:24.649Z,50.12
2019-04-21T00:55:01.115Z,48.85
2019-04-21T00:57:25.216Z,47.95
2019-04-21T00:59:57.163Z,48.10
2019-04-21T01:02:24.954Z,50.73
2019-04-21T01:05:00.227Z,49.55
2019-04-21T01:07:27.650Z,48.40
2019-04-21T01:09:45.297Z,48.97
2019-04-21T01:12:28.265Z,51.83
2019-04-21T01:15:04.071Z,52.77
2019-04-21T01:17:28.363Z,53.87
2019-04-21T01:19:56.030Z,54.53
2019-04-21T01:22:09.154Z,53.87
2019-04-21T01:24:43.079Z,54.77
2019-04-21T01:27:21.106Z,55.83
2019-04-21T01:30:01.245Z,57.00
2019-04-21T01:32:39.745Z,55.53
2019-04-21T01:35:06.750Z,53.75
2019-04-21T01:37:40.896Z,57.60
2019-04-21T01:40:12.592Z,55.73
2019-04-21T01:42:33.407Z,54.83
2019-04-21T01:45:18.926Z,55.08
2019-04-21T01:47:46.226Z,54.77
2019-04-21T01:50:08.403Z,55.50
2019-04-21T01:53:15.468Z,55.48
2019-04-21T01:55:24.973Z,54.05
2019-04-21T01:57:54.297Z,57.23
2019-04-21T02:00:23.470Z,55.28
2019-04-21T02:03:19.233Z,55.83
2019-04-21T02:05:40.892Z,54.57
2019-04-21T02:08:01.092Z,56.00
2019-04-21T02:10:40.346Z,60.80
2019-04-21T02:13:03.207Z,60.60
2019-04-21T02:15:36.307Z,59.33
2019-04-21T02:18:06.036Z,59.53
2019-04-21T02:20:25.790Z,61.17
2019-04-21T02:23:23.040Z,62.85
2019-04-21T02:25:38.370Z,61.73
2019-04-21T02:28:13.511Z,67.13
2019-04-21T02:33:32.321Z,64.20
2019-04-21T02:36:10.240Z,67.43
2019-04-21T02:38:34.446Z,70.50
2019-04-21T02:40:51.272Z,71.40
2019-04-21T02:45:58.654Z,70.97
2019-04-21T02:48:17.301Z,70.73
2019-04-21T02:50:47.563Z,68.00
2019-04-21T02:53:32.698Z,73.50
2019-04-21T02:55:51.228Z,69.33
2019-04-21T02:58:34.726Z,71.15
2019-04-21T03:01:05.164Z,70.50
2019-04-21T03:03:54.844Z,72.40
2019-04-21T03:06:39.891Z,74.15
2019-04-21T03:09:09.069Z,73.80
2019-04-21T03:11:34.777Z,72.08
2019-04-21T03:14:17.079Z,72.30
2019-04-21T03:16:31.208Z,74.20
2019-04-21T03:19:18.800Z,73.80
2019-04-21T03:21:38.273Z,71.53
2019-04-21T03:24:29.410Z,73.25
2019-04-21T03:26:54.397Z,72.10
2019-04-21T03:36:58.655Z,76.15
2019-04-21T03:39:07.724Z,79.23
2019-04-21T03:41:48.025Z,80.97
2019-04-21T03:44:14.559Z,79.12
2019-04-21T03:46:47.542Z,80.23
2019-04-21T03:49:19.230Z,79.77
2019-04-21T03:51:57.352Z,77.57
2019-04-21T03:54:22.295Z,77.08
2019-04-21T03:59:16.112Z,78.78
2019-04-21T04:04:53.515Z,79.20
2019-04-21T04:07:50.185Z,74.63
2019-04-21T04:10:09.667Z,80.05
2019-04-21T04:15:07.718Z,81.95
2019-04-21T04:20:06.144Z,81.90
2019-04-21T04:22:42.683Z,83.40
2019-04-21T04:25:21.019Z,80.87
2019-04-21T04:27:51.360Z,82.90
2019-04-21T04:30:21.704Z,84.37
2019-04-21T04:32:51.910Z,86.78
2019-04-21T04:37:44.564Z,85.45
2019-04-21T04:50:35.827Z,97.33
2019-04-21T04:53:12.137Z,96.57
2019-04-21T04:55:29.188Z,98.13
2019-04-21T04:57:59.478Z,94.47
2019-04-21T05:02:56.065Z,93.97
2019-04-21T05:05:28.377Z,92.87
2019-04-21T05:08:24.357Z,92.42
2019-04-21T05:10:38.858Z,91.80
2019-04-21T05:12:56.989Z,95.35
2019-04-21T05:15:43.728Z,92.85
2019-04-21T05:18:02.870Z,93.00
2019-04-21T05:20:24.260Z,91.92
2019-04-21T05:22:59.752Z,93.40
2019-04-21T05:25:23.080Z,97.80
2019-04-21T05:27:54.066Z,94.03
2019-04-21T05:30:33.915Z,94.03
2019-04-21T05:33:03.976Z,93.47
2019-04-21T05:35:57.264Z,95.62
2019-04-21T05:38:22.359Z,99.23
2019-04-21T05:40:48.339Z,95.90
2019-04-21T05:43:28.438Z,89.67
2019-04-21T05:46:01.229Z,83.27
2019-04-21T05:48:35.352Z,82.60
2019-04-21T05:50:59.169Z,79.33
2019-04-21T05:53:41.067Z,74.85
2019-04-21T05:56:12.932Z,72.35
2019-04-21T05:58:37.771Z,70.73
2019-04-21T06:01:27.587Z,67.60
2019-04-21T06:03:49.243Z,67.42
2019-04-21T06:08:48.040Z,64.27
2019-04-21T06:13:55.076Z,62.07
2019-04-21T06:16:23.172Z,61.63
2019-04-21T06:18:58.715Z,61.42
2019-04-21T06:21:21.958Z,60.80
2019-04-21T06:23:49.645Z,60.03
2019-04-21T06:29:09.175Z,55.92
2019-04-21T06:31:57.381Z,54.38
2019-04-21T06:34:11.572Z,57.30
2019-04-21T06:36:39.596Z,54.30
2019-04-21T06:46:34.879Z,54.70
2019-04-21T06:49:13.167Z,54.13
2019-04-21T06:51:30.521Z,54.37
2019-04-21T06:56:42.447Z,55.20
2019-04-21T06:59:06.455Z,50.92
2019-04-21T07:04:11.753Z,52.83
2019-04-21T07:06:45.729Z,51.20
2019-04-21T07:09:16.058Z,50.88
2019-04-21T07:11:36.717Z,53.20
2019-04-21T07:14:29.865Z,51.75
2019-04-21T07:16:44.681Z,53.40
2019-04-21T07:19:22.119Z,53.30
2019-04-21T07:21:42.705Z,51.93
2019-04-21T07:24:14.184Z,51.73
2019-04-21T07:26:44.754Z,50.63
2019-04-21T07:29:17.134Z,50.83
2019-04-21T07:31:49.998Z,49.60
2019-04-21T07:34:17.709Z,49.20
2019-04-21T07:36:53.380Z,50.33
2019-04-21T07:39:10.313Z,49.88
2019-04-21T07:41:42.461Z,51.90
2019-04-21T07:44:09.216Z,50.90
2019-04-21T07:46:38.667Z,52.40
2019-04-21T07:49:34.247Z,52.40
2019-04-21T07:52:03.057Z,54.07
2019-04-21T07:54:42.594Z,54.37
2019-04-21T07:56:56.063Z,53.00
2019-04-21T08:02:15.970Z,53.78
2019-04-21T08:04:55.842Z,57.83
2019-04-21T08:07:06.878Z,55.90
2019-04-21T08:09:41.217Z,57.73
2019-04-21T08:12:04.149Z,57.55
2019-04-21T08:14:43.573Z,57.30
2019-04-21T08:17:10.961Z,56.30
2019-04-21T08:19:47.714Z,58.42
2019-04-21T08:22:20.527Z,59.45
2019-04-21T08:24:51.775Z,58.00
2019-04-21T08:27:30.253Z,59.70
2019-04-21T08:29:58.164Z,58.52
2019-04-21T08:32:39.526Z,56.40
2019-04-21T08:35:20.751Z,60.10
2019-04-21T08:37:38.029Z,59.48
2019-04-21T08:40:09.926Z,59.35
2019-04-21T08:42:41.598Z,60.17
2019-04-21T08:45:15.133Z,60.52
2019-04-21T08:47:39.740Z,59.83
2019-04-21T08:50:08.478Z,58.87
2019-04-21T08:55:20.044Z,57.17
2019-04-21T08:57:56.838Z,57.08
2019-04-21T09:00:21.899Z,58.68
2019-04-21T09:03:31.259Z,58.60
2019-04-21T09:06:02.002Z,56.77
2019-04-21T09:08:26.160Z,54.95
2019-04-21T09:10:55.863Z,56.08
2019-04-21T09:13:24.868Z,56.42
2019-04-21T09:15:54.899Z,54.38
2019-04-21T09:18:22.929Z,54.58
2019-04-21T09:20:59.311Z,55.78
2019-04-21T09:23:28.441Z,54.42
2019-04-21T09:25:58.845Z,53.80
2019-04-21T09:28:25.631Z,52.60
2019-04-21T09:30:48.887Z,53.87
2019-04-21T09:33:14.116Z,54.33
2019-04-21T09:35:51.239Z,54.42
2019-04-21T09:38:26.681Z,54.42
2019-04-21T09:40:49.092Z,50.65
2019-04-21T09:43:25.833Z,49.67
2019-04-21T09:45:49.638Z,50.38
2019-04-21T09:48:22.532Z,48.70
2019-04-21T09:50:52.378Z,49.63
2019-04-21T09:53:29.458Z,49.77
2019-04-21T09:55:58.417Z,48.50
2019-04-21T09:58:31.091Z,49.17
2019-04-21T10:01:06.166Z,48.43
2019-04-21T10:03:26.304Z,45.10
2019-04-21T10:05:56.360Z,44.65
2019-04-21T10:08:27.226Z,45.97
2019-04-21T10:10:59.560Z,45.60
2019-04-21T10:13:29.595Z,45.52
2019-04-21T10:16:15.792Z,44.83
2019-04-21T10:18:48.082Z,43.15
2019-04-21T10:21:17.431Z,44.70
2019-04-21T10:23:48.177Z,43.98
2019-04-21T10:26:17.160Z,42.20
2019-04-21T10:28:46.857Z,43.90
2019-04-21T10:31:24.936Z,41.18
2019-04-21T10:33:55.914Z,40.38
2019-04-21T10:36:28.953Z,44.73
2019-04-21T10:38:59.549Z,40.52
2019-04-21T10:41:29.738Z,39.03
2019-04-21T10:44:16.996Z,37.97
2019-04-21T10:46:54.532Z,39.80
2019-04-21T10:49:24.886Z,39.23
2019-04-21T10:51:55.050Z,38.67
2019-04-21T10:54:26.088Z,37.90
2019-04-21T10:56:58.632Z,38.33
2019-04-21T10:59:52.726Z,37.45
2019-04-21T11:02:32.913Z,35.90
2019-04-21T11:05:06.674Z,33.85
2019-04-21T11:07:55.369Z,32.80
2019-04-21T11:10:23.786Z,34.90
2019-04-21T11:12:50.855Z,31.20
2019-04-21T11:15:21.083Z,33.23
2019-04-21T11:18:06.072Z,32.10
2019-04-21T11:20:33.375Z,31.93
2019-04-21T11:23:14.292Z,32.30
2019-04-21T11:25:49.738Z,31.42
2019-04-21T11:28:29.142Z,29.97
2019-04-21T11:31:00.671Z,31.23
2019-04-21T11:33:31.294Z,36.50
2019-04-21T11:36:07.135Z,29.63
2019-04-21T11:39:11.026Z,29.77
2019-04-21T11:41:29.858Z,30.65
2019-04-21T11:43:59.200Z,30.85
2019-04-21T11:46:30.767Z,27.77
2019-04-21T11:49:02.500Z,28.80
2019-04-21T11:51:42.801Z,26.93
2019-04-21T11:54:12.927Z,28.80
2019-04-21T11:56:43.099Z,28.10
2019-04-21T11:59:12.424Z,29.17
2019-04-21T12:01:41.479Z,28.87
2019-04-21T12:04:13.853Z,30.88
2019-04-21T12:06:47.609Z,26.45
2019-04-21T12:09:16.799Z,28.57
2019-04-21T12:11:47.433Z,27.67
2019-04-21T12:14:19.866Z,26.87
2019-04-21T12:16:49.191Z,29.60
2019-04-21T12:19:28.599Z,28.45
2019-04-21T12:22:11.278Z,26.60
2019-04-21T12:24:47.089Z,27.98
2019-04-21T12:27:22.186Z,26.80
2019-04-21T12:29:51.687Z,27.10
2019-04-21T12:32:40.116Z,27.17
2019-04-21T12:35:12.297Z,26.30
2019-04-21T12:37:42.773Z,24.45
2019-04-21T12:40:12.722Z,24.67
2019-04-21T12:42:43.732Z,25.77
2019-04-21T12:45:15.214Z,23.35
2019-04-21T12:47:44.100Z,26.57
2019-04-21T12:50:14.854Z,23.40
2019-04-21T12:52:43.573Z,24.95
2019-04-21T12:55:13.523Z,23.73
2019-04-21T12:57:47.588Z,23.90
2019-04-21T13:00:22.722Z,23.05
2019-04-21T13:02:53.994Z,22.75
2019-04-21T13:05:25.447Z,23.47
2019-04-21T13:07:53.582Z,22.77
2019-04-21T13:10:22.663Z,21.93
2019-04-21T13:12:52.286Z,20.73
2019-04-21T13:15:22.198Z,21.33
2019-04-21T13:17:52.132Z,18.67
2019-04-21T13:20:25.698Z,21.97
2019-04-21T13:22:54.498Z,19.43
2019-04-21T13:25:23.708Z,23.73
2019-04-21T13:27:52.432Z,22.70
2019-04-21T13:30:22.322Z,22.20
2019-04-21T13:32:55.655Z,21.80
2019-04-21T13:35:26.769Z,23.92
2019-04-21T13:37:56.289Z,22.67
2019-04-21T13:40:49.875Z,20.57
2019-04-21T13:43:06.637Z,21.75
2019-04-21T13:45:36.145Z,22.35
2019-04-21T13:48:06.572Z,21.73
2019-04-21T13:50:35.523Z,21.77
2019-04-21T13:53:04.996Z,22.60
2019-04-21T13:55:36.744Z,22.77
2019-04-21T13:58:04.342Z,23.55
2019-04-21T14:00:36.227Z,24.70
2019-04-21T14:03:07.086Z,25.66
2019-04-21T14:05:36.184Z,26.50
2019-04-21T14:08:07.390Z,27.96
2019-04-21T14:10:37.571Z,25.88
2019-04-21T14:13:08.556Z,28.30
2019-04-21T14:15:37.910Z,28.73
2019-04-21T14:18:07.134Z,26.60
2019-04-21T14:20:35.716Z,28.70
2019-04-21T14:23:18.887Z,27.83
2019-04-21T14:25:41.684Z,28.47
2019-04-21T14:28:12.311Z,27.40
2019-04-21T14:30:42.169Z,28.92
2019-04-21T14:33:12.129Z,28.10
2019-04-21T14:35:42.969Z,28.47
2019-04-21T14:38:12.248Z,30.13
2019-04-21T14:40:42.020Z,28.40
2019-04-21T14:43:14.244Z,29.13
2019-04-21T14:45:45.247Z,28.60
2019-04-21T14:48:32.838Z,28.80
2019-04-21T14:51:06.667Z,29.55
2019-04-21T14:53:56.343Z,28.77
2019-04-21T14:56:27.106Z,31.03
2019-04-21T14:58:59.168Z,30.30
2019-04-21T15:01:29.227Z,29.10
2019-04-21T15:03:57.778Z,30.00
2019-04-21T15:06:27.448Z,30.17
2019-04-21T15:08:57.517Z,30.15
2019-04-21T15:11:26.642Z,30.68
2019-04-21T15:14:06.120Z,30.70
2019-04-21T15:16:36.657Z,30.33
2019-04-21T15:19:08.507Z,32.33
2019-04-21T15:21:40.949Z,33.57
2019-04-21T15:24:12.483Z,35.10
2019-04-21T15:26:42.139Z,33.25
2019-04-21T15:29:12.818Z,35.00
2019-04-21T15:31:44.598Z,35.30
2019-04-21T15:34:13.144Z,30.67
2019-04-21T15:36:42.199Z,30.27
2019-04-21T15:39:11.901Z,31.23
2019-04-21T15:41:42.737Z,29.72
2019-04-21T15:44:12.500Z,32.27
2019-04-21T15:46:41.910Z,31.33
2019-04-21T15:49:13.318Z,29.65
2019-04-21T15:51:42.219Z,29.72
2019-04-21T15:54:12.781Z,30.45
2019-04-21T15:56:42.948Z,28.55
2019-04-21T15:59:16.674Z,30.40
2019-04-21T16:01:52.670Z,28.90
2019-04-21T16:04:23.034Z,29.15
2019-04-21T16:06:53.456Z,29.75
2019-04-21T16:09:26.948Z,30.27
2019-04-21T16:11:57.947Z,29.45
2019-04-21T16:14:27.070Z,28.75
2019-04-21T16:17:03.349Z,32.80
2019-04-21T16:19:36.225Z,32.93
2019-04-21T16:22:17.093Z,31.80
2019-04-21T16:24:47.651Z,28.62
2019-04-21T16:27:17.390Z,29.90
2019-04-21T16:29:47.931Z,28.15
2019-04-21T16:32:20.159Z,27.85
2019-04-21T16:34:56.512Z,28.27
2019-04-21T16:37:21.391Z,29.18
2019-04-21T16:39:51.575Z,29.05
2019-04-21T16:42:22.676Z,28.83
2019-04-21T16:44:58.947Z,29.32
2019-04-21T16:47:28.335Z,30.02
2019-04-21T16:49:57.973Z,30.08
2019-04-21T16:52:29.731Z,29.00
2019-04-21T16:55:06.492Z,29.37
2019-04-21T16:57:43.818Z,29.75
2019-04-21T17:00:31.724Z,30.33
2019-04-21T17:02:50.583Z,30.10
2019-04-21T17:05:22.420Z,32.53
2019-04-21T17:07:52.924Z,31.60
2019-04-21T17:10:24.594Z,30.00
2019-04-21T17:12:59.898Z,32.00
2019-04-21T17:16:29.923Z,32.30
2019-04-21T17:18:13.471Z,32.23
2019-04-21T17:20:42.041Z,31.68
2019-04-21T17:23:03.992Z,30.32
2019-04-21T17:25:37.061Z,30.75
2019-04-21T17:28:07.816Z,30.80
2019-04-21T17:30:40.162Z,31.27
2019-04-21T17:33:10.262Z,31.40
2019-04-21T17:35:42.719Z,30.50
2019-04-21T17:38:14.076Z,36.30
2019-04-21T17:40:44.938Z,33.63
2019-04-21T17:43:18.397Z,34.80
2019-04-21T17:45:48.902Z,42.53
2019-04-21T17:48:21.883Z,35.87
2019-04-21T17:50:53.705Z,32.90
2019-04-21T17:53:34.708Z,34.63
2019-04-21T17:56:19.406Z,40.67
2019-04-21T17:58:51.077Z,36.95
2019-04-21T18:01:26.383Z,34.20
2019-04-21T18:03:58.532Z,35.43
2019-04-21T18:06:13.947Z,35.65
2019-04-21T18:08:54.752Z,35.55
2019-04-21T18:11:12.524Z,35.43
2019-04-21T18:13:34.641Z,40.30
2019-04-21T18:16:13.373Z,40.23
2019-04-21T18:18:34.906Z,40.52
2019-04-21T18:21:07.039Z,43.27
2019-04-21T18:23:46.949Z,42.03
2019-04-21T18:26:22.964Z,43.93
2019-04-21T18:28:38.790Z,43.30
2019-04-21T18:31:10.343Z,44.65
2019-04-21T18:33:42.692Z,44.65
2019-04-21T18:36:22.573Z,43.05
2019-04-21T18:39:09.745Z,43.90
2019-04-21T18:41:30.119Z,44.85
2019-04-21T18:44:28.201Z,43.73
2019-04-21T18:46:54.626Z,45.12
2019-04-21T18:49:06.492Z,44.45
2019-04-21T18:52:02.328Z,44.67
2019-04-21T18:54:41.495Z,45.03
2019-04-21T18:57:07.228Z,45.85
2019-04-21T18:59:31.317Z,46.17
2019-04-21T19:02:01.059Z,46.53
2019-04-21T19:04:32.427Z,46.63
2019-04-21T19:07:06.621Z,45.63
2019-04-21T19:10:07.062Z,47.20
2019-04-21T19:12:23.770Z,46.90
2019-04-21T19:14:46.013Z,47.33
2019-04-21T19:19:56.331Z,49.27
2019-04-21T19:22:16.998Z,48.45
2019-04-21T19:24:55.277Z,48.58
2019-04-21T19:27:22.761Z,49.90
2019-04-21T19:30:02.847Z,50.30
2019-04-21T19:34:37.836Z,51.02
2019-04-21T19:37:09.322Z,50.85
2019-04-21T19:39:49.054Z,48.78
2019-04-21T19:42:18.260Z,47.83
2019-04-21T19:44:52.225Z,48.40
2019-04-21T19:47:28.170Z,52.54
2019-04-21T19:52:22.626Z,47.63
2019-04-21T19:54:43.161Z,53.13
2019-04-21T19:57:09.035Z,54.13
2019-04-21T19:59:47.212Z,49.42
2019-04-21T20:02:14.117Z,51.75
2019-04-21T20:04:57.774Z,53.10
2019-04-21T20:07:31.430Z,50.93
2019-04-21T20:10:14.274Z,52.73
2019-04-21T20:12:40.114Z,53.47
2019-04-21T20:15:20.383Z,55.05
2019-04-21T20:17:36.513Z,58.27
2019-04-21T20:19:54.094Z,58.20
2019-04-21T20:22:32.663Z,56.13
2019-04-21T20:25:03.964Z,55.23
2019-04-21T20:27:36.207Z,57.20
2019-04-21T20:30:15.580Z,57.83
2019-04-21T20:32:54.992Z,58.10
2019-04-21T20:35:25.060Z,58.17
2019-04-21T20:37:48.012Z,55.75
2019-04-21T20:40:21.825Z,57.28
2019-04-21T20:42:52.416Z,61.77
2019-04-21T20:45:36.170Z,62.37
2019-04-21T20:47:46.239Z,61.58
2019-04-21T20:50:19.476Z,60.70
2019-04-21T20:52:58.266Z,60.15
2019-04-21T20:55:23.679Z,61.53
2019-04-21T20:57:53.781Z,59.95
2019-04-21T21:00:39.373Z,62.27
2019-04-21T21:03:12.232Z,67.85
2019-04-21T21:05:38.948Z,70.10
2019-04-21T21:08:13.378Z,68.25
2019-04-21T21:10:38.616Z,64.80
2019-04-21T21:15:35.923Z,67.90
2019-04-21T21:18:26.850Z,71.62
2019-04-21T21:20:43.099Z,72.82
2019-04-21T21:23:09.216Z,73.42
2019-04-21T21:25:44.717Z,68.33
2019-04-21T21:28:07.726Z,72.90
2019-04-21T21:30:38.168Z,76.22
2019-04-21T21:33:18.061Z,76.33
2019-04-21T21:35:39.673Z,74.27
2019-04-21T21:38:19.962Z,70.47
2019-04-21T21:40:47.764Z,73.15
2019-04-21T21:43:01.530Z,67.42
2019-04-21T21:45:40.071Z,69.32
2019-04-21T21:48:18.790Z,69.97
2019-04-21T21:50:45.713Z,67.97
2019-04-21T21:53:08.332Z,63.85
2019-04-21T21:55:35.766Z,62.58
2019-04-21T21:58:07.939Z,58.73
2019-04-21T22:00:43.009Z,57.30
2019-04-21T22:03:17.681Z,60.43
2019-04-21T22:05:48.367Z,58.10
2019-04-21T22:08:12.652Z,57.40
2019-04-21T22:10:41.303Z,59.55
2019-04-21T22:13:14.776Z,62.53
2019-04-21T22:15:42.002Z,61.70
2019-04-21T22:18:28.706Z,62.17
2019-04-21T22:21:00.529Z,65.28
2019-04-21T22:23:24.141Z,62.80
2019-04-21T22:25:44.010Z,65.87
2019-04-21T22:28:13.714Z,64.73
2019-04-21T22:30:47.452Z,64.00
2019-04-21T22:33:16.267Z,62.93
2019-04-21T22:35:50.373Z,61.53
2019-04-21T22:38:29.622Z,59.53
2019-04-21T22:40:59.288Z,60.17
2019-04-21T22:43:21.737Z,56.58
2019-04-21T22:45:47.336Z,56.45
2019-04-21T22:48:21.078Z,55.33
2019-04-21T22:50:48.575Z,56.42
2019-04-21T22:53:17.950Z,55.43
2019-04-21T22:55:49.512Z,56.23
2019-04-21T22:58:25.717Z,53.33
2019-04-21T23:00:54.791Z,54.20
2019-04-21T23:03:24.434Z,56.05
2019-04-21T23:05:53.528Z,57.70
2019-04-21T23:08:26.680Z,58.87
2019-04-21T23:10:57.899Z,59.65
2019-04-21T23:13:24.123Z,57.33
2019-04-21T23:15:57.292Z,60.43
2019-04-21T23:18:39.927Z,64.07
2019-04-21T23:21:11.175Z,61.55
2019-04-21T23:23:48.336Z,64.97
2019-04-21T23:26:17.426Z,62.27
2019-04-21T23:28:49.152Z,66.47
2019-04-21T23:31:23.331Z,67.50
2019-04-21T23:33:27.017Z,65.45
2019-04-21T23:36:03.952Z,63.05
2019-04-21T23:38:36.833Z,67.20
2019-04-21T23:41:02.392Z,66.60
2019-04-21T23:43:31.413Z,67.37
2019-04-21T23:46:04.206Z,67.78
2019-04-21T23:48:41.278Z,71.25
2019-04-21T23:51:14.019Z,66.10
2019-04-21T23:53:31.335Z,67.93
2019-04-21T23:56:01.224Z,67.25
2019-04-21T23:58:32.821Z,71.07
